• Join FlightAware (Why Join?)
  • Login
  • US Flag 
09:34AM EDT


 

Airport Tracker/Info


-or-


 

Live Flight TrackerFlight Track Log ✈ DAL268 ✈ 16-Aug-2013 ✈ KJFK - LLBG / TLV

Flight Track Log - Related Links

Times and Time Zones

All times are in EDT time to prevent confusion due to time zone crossing. See the DAL268 flight status page for this flight to view local times or setup timezone preferences in your user account.

Time Position Orientation Groundspeed Altitude Reporting Facility
EDT Latitude Longitude Course Direction KTS MPH feet Rate Location/Type
11:53PM 40.6370 -73.7800 264° West  Level FlightAware
11:58PM 40.5858 -73.3931 108° East  Level FlightAware Approximate
11:59PM 40.5649 -73.2140 97° East  Level FlightAware Approximate
12:00AM 40.5500 -73.0288 90° East  Level FlightAware Approximate
12:01AM 40.5827 -72.8525 72° East  Level FlightAware Approximate
12:02AM 40.6333 -72.6800 90° East  Level FlightAware Approximate
12:12AM 40.6440 -73.7680 207° Southwest 70 81  Level FlightAware
12:12AM 40.6340 -73.7760 211° Southwest 150 173 240 Level FlightAware
12:12AM 40.6170 -73.7890 210° Southwest 181 208 200 1,260 Climbing FlightAware
12:13AM 40.6020 -73.8010 211° Southwest 180 207 1,000 2,100 Climbing FlightAware
12:13AM 40.5920 -73.8080 208° Southwest 187 215 1,400 1,500 Climbing FlightAware
12:13AM 40.5850 -73.8120 203° Southwest 197 227 1,500 360 Climbing FlightAware
12:13AM 40.5780 -73.8140 192° South 210 242 1,500 420 Level FlightAware
12:13AM 40.5720 -73.8150 187° South 223 257 1,600 840 Climbing FlightAware
12:14AM 40.5490 -73.8080 167° South 242 278 1,900 960 Climbing FlightAware
12:14AM 40.5400 -73.8020 153° Southeast 247 284 2,100 900 Climbing FlightAware
12:14AM 40.5300 -73.7920 143° Southeast 259 298 2,200 840 Climbing FlightAware
12:14AM 40.5170 -73.7720 131° Southeast 275 316 2,500 1,500 Climbing FlightAware
12:14AM 40.5100 -73.7520 115° Southeast 283 326 2,900 1,980 Climbing FlightAware
12:15AM 40.5080 -73.7420 105° East 283 326 3,100 2,520 Climbing FlightAware
12:15AM 40.5070 -73.7300 96° East 284 327 3,500 2,700 Climbing FlightAware
12:15AM 40.5117 -73.6888 81° East 283 326 4,500 2,280 Climbing FlightAware ADS-B
12:15AM 40.5141 -73.6614 83° East 287 330 5,000 2,280 Climbing FlightAware ADS-B
12:16AM 40.5162 -73.6352 84° East 288 331 5,700 2,580 Climbing FlightAware ADS-B
12:16AM 40.5183 -73.6093 84° East 287 330 6,300 1,740 Climbing FlightAware ADS-B
12:16AM 40.5205 -73.5816 84° East 286 329 6,600 720 Climbing FlightAware ADS-B
12:16AM 40.5224 -73.5556 85° East 287 330 6,700 180 Climbing FlightAware ADS-B
12:17AM 40.5245 -73.5295 84° East 286 329 6,700 180 Level FlightAware ADS-B
12:17AM 40.5263 -73.5035 85° East 286 329 6,800 360 Climbing FlightAware ADS-B
12:17AM 40.5281 -73.4757 85° East 287 330 6,900 1,080 Climbing FlightAware ADS-B
12:17AM 40.5301 -73.4495 84° East 291 335 7,400 1,740 Climbing FlightAware ADS-B
12:18AM 40.5321 -73.4226 84° East 302 348 7,800 1,380 Climbing FlightAware ADS-B
12:18AM 40.5339 -73.3927 85° East 312 359 8,100 1,800 Climbing FlightAware ADS-B
12:18AM 40.5358 -73.3643 85° East 313 360 8,700 2,100 Climbing FlightAware ADS-B
12:18AM 40.5380 -73.3334 85° East 321 369 9,200 1,920 Climbing FlightAware ADS-B
12:19AM 40.5401 -73.3039 85° East 326 375 9,700 1,380 Climbing FlightAware ADS-B
12:19AM 40.5445 -73.2410 85° East 350 403 10,300 840 Climbing FlightAware ADS-B
12:20AM 40.5491 -73.1720 85° East 382 440 10,600 960 Climbing FlightAware ADS-B
12:20AM 40.5535 -73.1003 85° East 401 461 11,300 1,620 Climbing FlightAware ADS-B
12:21AM 40.5591 -73.0292 84° East 413 475 12,200 1,800 Climbing FlightAware ADS-B
12:21AM 40.5687 -72.9776 76° East 421 484 12,800 1,980 Climbing FlightAware ADS-B
12:21AM 40.5874 -72.9315 62° Northeast 426 490 13,600 2,220 Climbing FlightAware ADS-B
12:22AM 40.6012 -72.9062 54° Northeast 430 495 14,000 2,160 Climbing FlightAware ADS-B
12:22AM 40.6388 -72.8445 51° Northeast 435 501 15,100 2,160 Climbing FlightAware ADS-B
12:23AM 40.6779 -72.7799 51° Northeast 442 509 16,200 2,040 Climbing FlightAware ADS-B
12:23AM 40.7169 -72.7161 51° Northeast 450 518 17,200 1,920 Climbing FlightAware ADS-B
12:24AM 40.7587 -72.6466 52° Northeast 460 529 18,200 1,800 Climbing FlightAware ADS-B
12:24AM 40.7996 -72.5782 52° Northeast 466 536 19,100 1,740 Climbing FlightAware ADS-B
12:25AM 40.8416 -72.5105 51° Northeast 474 545 20,000 1,620 Climbing FlightAware ADS-B
12:25AM 40.8841 -72.4397 52° Northeast 482 555 20,800 1,560 Climbing FlightAware ADS-B
12:26AM 40.9272 -72.3678 52° Northeast 488 562 21,600 1,500 Climbing FlightAware ADS-B
12:26AM 40.9706 -72.2944 52° Northeast 496 571 22,400 1,440 Climbing FlightAware ADS-B
12:27AM 41.0137 -72.2224 52° Northeast 502 578 23,100 1,500 Climbing FlightAware ADS-B
12:27AM 41.0625 -72.1398 52° Northeast 508 585 24,000 1,500 Climbing FlightAware ADS-B
12:28AM 41.1149 -72.0511 52° Northeast 514 592 24,900 1,320 Climbing FlightAware ADS-B
12:28AM 41.1602 -71.9762 51° Northeast 521 600 25,500 1,140 Climbing FlightAware ADS-B
12:29AM 41.2056 -71.8974 53° Northeast 528 608 26,100  Climbing FlightAware ADS-B
12:29AM 41.2380 -71.8480 49° Northeast 519 597 25,500 -540 Descending FlightAware
12:30AM 41.2850 -71.7720 51° Northeast 519 597 25,500  Level FlightAware
12:31AM 41.3310 -71.6960 51° Northeast 519 597 25,500  Level FlightAware
12:31AM 41.3770 -71.6200 51° Northeast 519 597 25,500 2,520 Level FlightAware
12:32AM 41.5040 -71.3890 54° Northeast 558 642 29,400 3,060 Climbing FlightAware
12:33AM 41.5610 -71.2900 52° Northeast 562 647 30,100 1,080 Climbing FlightAware
12:33AM 41.6270 -71.1760 52° Northeast 566 651 30,800 840 Climbing FlightAware
12:34AM 41.6770 -71.0890 52° Northeast 570 656 31,200 720 Climbing FlightAware
12:34AM 41.7330 -70.9900 53° Northeast 574 661 31,700 840 Climbing FlightAware
12:35AM 41.7940 -70.8840 52° Northeast 582 670 32,200 780 Climbing FlightAware
12:36AM 41.8480 -70.7920 52° Northeast 588 677 32,600 600 Climbing FlightAware
12:36AM 41.9320 -70.6430 53° Northeast 591 680 33,100 300 Climbing FlightAware
12:37AM 41.9850 -70.5470 53° Northeast 589 678 33,100  Level FlightAware
12:38AM 42.0490 -70.4330 53° Northeast 589 678 33,100  Level FlightAware
12:38AM 42.1030 -70.3360 53° Northeast 587 676 33,100  Level FlightAware
12:39AM 42.1630 -70.2290 53° Northeast 586 674 33,100  Level FlightAware
12:39AM 42.2200 -70.1260 53° Northeast 580 667 33,100  Level FlightAware
12:40AM 42.2760 -70.0270 53° Northeast 579 666 33,100  Level FlightAware
12:41AM 42.3320 -69.9250 53° Northeast 579 666 33,100  Level FlightAware
12:41AM 42.3910 -69.8190 53° Northeast 580 667 33,100  Level FlightAware
12:42AM 42.4530 -69.7050 54° Northeast 579 666 33,100  Level FlightAware
12:42AM 42.5220 -69.5790 53° Northeast 578 665 33,100  Level FlightAware
12:43AM 42.5950 -69.4470 53° Northeast 578 665 33,100  Level FlightAware
12:44AM 42.6650 -69.3160 54° Northeast 578 665 33,100  Level FlightAware
12:45AM 42.7300 -69.1960 54° Northeast 576 663 33,100  Level FlightAware
12:46AM 42.8180 -69.0330 54° Northeast 576 663 33,100  Level FlightAware
12:46AM 42.8730 -68.9270 55° Northeast 572 658 33,100  Level FlightAware
12:47AM 42.9200 -68.8430 53° Northeast 570 656 33,100  Level FlightAware
12:47AM 42.9840 -68.7210 54° Northeast 564 649 33,100  Level FlightAware
12:48AM 43.0550 -68.5880 54° Northeast 564 649 33,100  Level FlightAware
12:49AM 43.1020 -68.5000 54° Northeast 564 649 33,100  Level FlightAware
12:49AM 43.1500 -68.4090 54° Northeast 564 649 33,100  Level FlightAware
12:50AM 43.1970 -68.3200 54° Northeast 564 649 33,100  Level FlightAware
12:51AM 43.2440 -68.2310 54° Northeast 564 649 33,100  Level FlightAware
12:51AM 43.3300 -68.0600 55° Northeast 33,100  Level FlightAware
12:54AM 43.6060 -67.5260 54° Northeast 33,100  Level FlightAware
12:55AM 43.6520 -67.4350 55° Northeast 575 662 33,100  Level FlightAware
12:55AM 43.7240 -67.2920 55° Northeast 575 662 33,100  Level FlightAware
12:56AM 43.7770 -67.1860 55° Northeast 575 662 33,100  Level FlightAware
12:57AM 43.8400 -67.0610 55° Northeast 575 662 33,100  Level FlightAware
12:57AM 43.8910 -66.9580 55° Northeast 575 662 33,100  Level FlightAware
12:58AM 43.9530 -66.8350 55° Northeast 576 663 33,100  Level FlightAware
12:58AM 44.0000 -66.7400 55° Northeast 577 664 33,100  Level FlightAware
12:59AM 44.0530 -66.6320 56° Northeast 577 664 33,100  Level FlightAware
01:00AM 44.1050 -66.5270 55° Northeast 576 663 33,100  Level FlightAware
01:00AM 44.1670 -66.4010 56° Northeast 577 664 33,100 480 Level FlightAware
01:01AM 44.2100 -66.3140 55° Northeast 580 667 33,700 900 Climbing FlightAware
01:01AM 44.2650 -66.2030 55° Northeast 578 665 34,100 300 Climbing FlightAware
01:02AM 44.3280 -66.0720 56° Northeast 582 670 34,100  Level FlightAware
01:03AM 44.3830 -65.9590 56° Northeast 581 669 34,100  Level FlightAware
01:04AM 44.4660 -65.7860 56° Northeast 580 667 34,100  Level FlightAware
01:04AM 44.5110 -65.6900 57° Northeast 580 667 34,100  Level FlightAware
01:05AM 44.5950 -65.5170 56° Northeast 581 669 34,100  Level FlightAware
01:05AM 44.6440 -65.4100 57° Northeast 582 670 34,100  Level FlightAware
01:06AM 44.7080 -65.2750 56° Northeast 583 671 34,100  Level FlightAware
01:07AM 44.7870 -65.1070 56° Northeast 584 672 34,100  Level FlightAware
01:08AM 44.8340 -65.0060 57° Northeast 585 673 34,100  Level FlightAware
01:08AM 44.8990 -64.8680 56° Northeast 586 674 34,100  Level FlightAware
01:09AM 44.9520 -64.7530 57° Northeast 587 676 34,100  Level FlightAware
01:10AM 45.0010 -64.6460 57° Northeast 587 676 34,100  Level FlightAware
01:10AM 45.0590 -64.5220 56° Northeast 588 677 34,100  Level FlightAware
01:11AM 45.1110 -64.4060 58° Northeast 588 677 34,100  Level FlightAware
01:11AM 45.1710 -64.2770 57° Northeast 588 677 34,100  Level FlightAware
01:12AM 45.2100 -64.1920 57° Northeast 589 678 34,100  Level FlightAware
01:12AM 45.2660 -64.0660 58° Northeast 589 678 34,100  Level FlightAware
01:13AM 45.3120 -63.9610 58° Northeast 588 677 34,100  Level FlightAware
01:14AM 45.3610 -63.8500 58° Northeast 588 677 34,100  Level FlightAware
01:14AM 45.4050 -63.7490 58° Northeast 588 677 34,100  Level FlightAware
01:15AM 45.4667 -63.5667 58° Northeast 590 679 34,100  Level Moncton Center
01:16AM 45.5500 -63.3667 59° Northeast 590 679 34,100  Level Moncton Center
01:17AM 45.6333 -63.2000 54° Northeast 580 667 34,100  Level Moncton Center
01:23AM 46.1620 -62.0110 54° Northeast 581 669 34,100  Level FlightAware
01:24AM 46.2120 -61.8910 59° Northeast 581 669 34,100  Level FlightAware
01:24AM 46.2560 -61.7850 59° Northeast 580 667 34,100  Level FlightAware
01:25AM 46.3050 -61.6660 59° Northeast 580 667 34,100  Level FlightAware
01:25AM 46.3560 -61.5430 59° Northeast 580 667 34,100  Level FlightAware
01:26AM 46.3990 -61.4390 59° Northeast 580 667 34,100  Level FlightAware
01:26AM 46.4490 -61.3150 60° Northeast 581 669 34,100  Level FlightAware
01:27AM 46.4980 -61.1980 59° Northeast 582 670 34,100  Level FlightAware
01:28AM 46.5470 -61.0770 59° Northeast 582 670 34,100  Level FlightAware
01:28AM 46.5940 -60.9630 59° Northeast 583 671 34,100  Level FlightAware
01:29AM 46.6420 -60.8410 60° Northeast 582 670 34,100  Level FlightAware
01:29AM 46.6860 -60.7300 60° Northeast 581 669 34,100  Level FlightAware
01:30AM 46.7350 -60.6110 59° Northeast 581 669 34,100  Level FlightAware
01:31AM 46.7860 -60.4830 60° Northeast 580 667 34,100  Level FlightAware
01:31AM 46.8350 -60.3580 60° Northeast 580 667 34,100  Level FlightAware
01:32AM 46.8780 -60.2490 60° Northeast 579 666 34,100  Level FlightAware
01:32AM 46.9250 -60.1270 61° Northeast 579 666 34,100  Level FlightAware
01:33AM 46.9730 -60.0050 60° Northeast 578 665 34,100  Level FlightAware
01:33AM 47.0200 -59.8860 60° Northeast 578 665 34,100  Level FlightAware
01:34AM 47.0630 -59.7740 61° Northeast 578 665 34,100  Level FlightAware
01:35AM 47.1060 -59.6660 60° Northeast 577 664 34,100  Level FlightAware
01:35AM 47.1550 -59.5380 61° Northeast 576 663 34,100  Level FlightAware
01:36AM 47.2020 -59.4130 61° Northeast 575 662 34,100  Level FlightAware
01:36AM 47.2480 -59.2900 61° Northeast 574 661 34,100  Level FlightAware
01:37AM 47.3070 -59.1410 60° Northeast 574 661 34,100  Level FlightAware
01:38AM 47.3340 -59.0720 60° Northeast 574 661 34,100  Level FlightAware
01:38AM 47.3740 -58.9680 60° Northeast 574 661 34,100  Level FlightAware
01:39AM 47.4160 -58.8610 60° Northeast 574 661 34,100  Level FlightAware
01:39AM 47.4570 -58.7570 60° Northeast 574 661 34,100  Level FlightAware
01:40AM 47.4970 -58.6530 60° Northeast 574 661 34,100  Level FlightAware
01:41AM 47.5360 -58.5550 59° Northeast 574 661 34,100  Level FlightAware
01:41AM 47.5760 -58.4500 61° Northeast 574 661 34,100  Level FlightAware
01:42AM 47.6790 -58.1320 64° Northeast 570 656 34,100  Level FlightAware
01:43AM 47.7280 -57.9980 61° Northeast 570 656 34,100  Level FlightAware
01:43AM 47.7760 -57.8630 62° Northeast 570 656 34,100  Level FlightAware
01:44AM 47.8230 -57.7350 61° Northeast 570 656 34,100  Level FlightAware
01:45AM 47.8710 -57.5970 63° Northeast 571 657 34,100  Level FlightAware
01:45AM 47.9270 -57.4400 62° Northeast 570 656 34,100  Level FlightAware
01:46AM 47.9700 -57.3180 62° Northeast 571 657 34,100  Level FlightAware
01:47AM 48.0150 -57.1680 66° East 569 655 34,100  Level FlightAware
01:47AM 48.0510 -57.0580 64° Northeast 569 655 34,100  Level FlightAware
01:48AM 48.0920 -56.9230 66° East 569 655 34,100  Level FlightAware
01:48AM 48.1390 -56.7780 64° Northeast 568 654 34,100  Level FlightAware
01:49AM 48.1940 -56.6000 65° Northeast 567 652 34,100  Level FlightAware
01:50AM 48.2270 -56.4970 64° Northeast 567 652 34,100  Level FlightAware
01:50AM 48.2680 -56.3620 65° Northeast 566 651 34,100  Level FlightAware
01:51AM 48.3060 -56.2410 65° Northeast 566 651 34,100  Level FlightAware
01:52AM 48.3530 -56.0910 65° Northeast 566 651 34,100  Level FlightAware
01:52AM 48.3840 -55.9880 66° East 565 650 34,100  Level FlightAware
01:53AM 48.4230 -55.8590 65° Northeast 565 650 34,100  Level FlightAware
01:53AM 48.4630 -55.7270 65° Northeast 564 649 34,100  Level FlightAware
01:54AM 48.4960 -55.6200 65° Northeast 564 649 34,100  Level FlightAware
01:54AM 48.5340 -55.4910 66° East 564 649 34,100  Level FlightAware
01:55AM 48.5770 -55.3510 65° Northeast 564 649 34,100  Level FlightAware
01:56AM 48.6170 -55.2150 66° East 563 648 34,100  Level FlightAware
01:56AM 48.6490 -55.1040 66° East 562 647 34,100  Level FlightAware
01:57AM 48.6860 -54.9820 65° Northeast 562 647 34,100  Level FlightAware
01:57AM 48.7220 -54.8560 67° East 562 647 34,100  Level FlightAware
01:58AM 48.7590 -54.7300 66° East 562 647 34,100  Level FlightAware
01:59AM 48.7960 -54.6000 67° East 562 647 34,100  Level FlightAware
01:59AM 48.8320 -54.4780 66° East 561 646 34,100  Level FlightAware
02:00AM 48.8640 -54.3660 66° East 562 647 34,100  Level FlightAware
02:00AM 48.9040 -54.2250 67° East 562 647 34,100  Level FlightAware
02:01AM 48.9360 -54.1090 67° East 562 647 34,100  Level FlightAware
02:01AM 48.9730 -53.9780 67° East 561 646 34,100  Level FlightAware
02:02AM 49.0100 -53.8470 67° East 561 646 34,100  Level FlightAware
02:03AM 49.0520 -53.6940 67° East 562 647 34,100  Level FlightAware
02:03AM 49.0800 -53.5960 66° East 563 648 34,100  Level FlightAware
02:04AM 49.1160 -53.4680 67° East 562 647 34,100  Level FlightAware
02:04AM 49.1500 -53.3400 68° East 563 648 34,100  Level FlightAware
02:05AM 49.1920 -53.1860 67° East 562 647 34,100  Level FlightAware
02:06AM 49.2220 -53.0790 67° East 562 647 34,100  Level FlightAware
02:06AM 49.2530 -52.9620 68° East 562 647 34,100  Level FlightAware
02:07AM 49.2940 -52.8070 68° East 561 646 34,100  Level FlightAware
02:07AM 49.3270 -52.6860 67° East 561 646 34,100  Level FlightAware
02:08AM 49.3580 -52.5680 68° East 562 647 34,100  Level FlightAware
02:09AM 49.3920 -52.4430 67° East 562 647 34,100  Level FlightAware
02:09AM 49.4240 -52.3310 66° East 562 647 34,100  Level FlightAware
02:10AM 49.4700 -52.1430 69° East 562 647 34,100  Level FlightAware
02:10AM 49.5050 -52.0060 68° East 562 647 34,100  Level FlightAware
02:11AM 49.5390 -51.8760 68° East 563 648 34,100  Level FlightAware
02:12AM 49.5730 -51.7410 69° East 563 648 34,100  Level FlightAware
02:12AM 49.5990 -51.6420 68° East 563 648 34,100  Level FlightAware
02:13AM 49.6450 -51.4590 69° East 563 648 34,100  Level FlightAware
02:14AM 49.6750 -51.3440 68° East 563 648 34,100  Level FlightAware
02:14AM 49.7050 -51.2300 68° East 563 648 34,100  Level FlightAware
02:15AM 49.7350 -51.1160 68° East 563 648 34,100  Level FlightAware
02:15AM 49.7650 -51.0010 68° East 563 648 34,100  Level FlightAware
02:16AM 49.7950 -50.8870 68° East 563 648 34,100  Level FlightAware
02:17AM 49.8240 -50.7720 69° East 563 648 34,100  Level FlightAware
02:17AM 49.8550 -50.6550 68° East 563 648 34,100  Level FlightAware
02:18AM 49.8850 -50.5400 68° East 563 648 34,100  Level FlightAware
02:18AM 49.9150 -50.4250 68° East 563 648 34,100  Level FlightAware
02:19AM 49.9450 -50.3070 68° East 563 648 34,100  Level FlightAware
02:20AM 49.9750 -50.1920 68° East 563 648 34,100  Level FlightAware
02:20AM 50.0050 -50.0770 68° East 563 648 34,100  Level FlightAware
02:21AM 50.0360 -49.9590 68° East 563 648 34,100  Level FlightAware
02:21AM 50.0660 -49.8440 68° East 563 648 34,100  Level FlightAware
02:22AM 50.0950 -49.7290 69° East 563 648 34,100  Level FlightAware
02:23AM 50.1833 -49.1333 69° East 560 644 34,100  Level Gander Center
02:24AM 50.2500 -48.9333 62° Northeast 570 656 34,100  Level Gander Center
02:25AM 50.2833 -48.6833 78° East 570 656 34,100  Level Gander Center
02:26AM 50.3667 -48.4000 65° Northeast 550 633 34,100  Level Gander Center
02:27AM 50.4167 -48.1667 71° East 560 644 34,100  Level Gander Center
02:28AM 50.4500 -47.9500 76° East 590 679 34,100  Level Gander Center
02:30AM 50.5243 -47.6332 70° East  Level FlightAware Approximate
02:37AM 50.8710 -46.0899 70° East  Level FlightAware Approximate
02:38AM 50.9189 -45.8676 71° East  Level FlightAware Approximate
02:39AM 50.9663 -45.6448 71° East  Level FlightAware Approximate
02:40AM 51.0133 -45.4216 71° East  Level FlightAware Approximate
02:41AM 51.0599 -45.1979 72° East  Level FlightAware Approximate
02:42AM 51.1060 -44.9738 72° East  Level FlightAware Approximate
02:43AM 51.1517 -44.7492 72° East  Level FlightAware Approximate
02:44AM 51.1970 -44.5242 72° East  Level FlightAware Approximate
02:45AM 51.2419 -44.2987 72° East  Level FlightAware Approximate
02:46AM 51.2863 -44.0728 72° East  Level FlightAware Approximate
02:47AM 51.3303 -43.8465 73° East  Level FlightAware Approximate
02:48AM 51.3739 -43.6197 73° East  Level FlightAware Approximate
02:49AM 51.4170 -43.3925 73° East  Level FlightAware Approximate
02:50AM 51.4596 -43.1649 73° East  Level FlightAware Approximate
02:51AM 51.5019 -42.9368 73° East  Level FlightAware Approximate
02:52AM 51.5437 -42.7084 74° East  Level FlightAware Approximate
02:53AM 51.5850 -42.4795 74° East  Level FlightAware Approximate
02:54AM 51.6259 -42.2502 74° East  Level FlightAware Approximate
02:55AM 51.6664 -42.0205 74° East  Level FlightAware Approximate
02:56AM 51.7064 -41.7904 74° East  Level FlightAware Approximate
02:57AM 51.7459 -41.5598 74° East  Level FlightAware Approximate
02:58AM 51.7850 -41.3289 75° East  Level FlightAware Approximate
02:59AM 51.8237 -41.0976 75° East  Level FlightAware Approximate
03:00AM 51.8619 -40.8659 75° East  Level FlightAware Approximate
03:01AM 51.8996 -40.6338 75° East  Level FlightAware Approximate
03:02AM 51.9369 -40.4013 75° East  Level FlightAware Approximate
03:03AM 51.9737 -40.1684 76° East  Level FlightAware Approximate
03:04AM 52.0093 -39.9349 77° East  Level FlightAware Approximate
03:05AM 52.0426 -39.7003 77° East  Level FlightAware Approximate
03:06AM 52.0753 -39.4653 77° East  Level FlightAware Approximate
03:07AM 52.1077 -39.2299 77° East  Level FlightAware Approximate
03:08AM 52.1395 -38.9942 77° East  Level FlightAware Approximate
03:09AM 52.1709 -38.7582 78° East  Level FlightAware Approximate
03:10AM 52.2018 -38.5218 78° East  Level FlightAware Approximate
03:11AM 52.2322 -38.2851 78° East  Level FlightAware Approximate
03:12AM 52.2622 -38.0475 78° East  Level FlightAware Approximate
03:13AM 52.2918 -37.8094 78° East  Level FlightAware Approximate
03:14AM 52.3209 -37.5711 79° East  Level FlightAware Approximate
03:15AM 52.3495 -37.3324 79° East  Level FlightAware Approximate
03:16AM 52.3776 -37.0935 79° East  Level FlightAware Approximate
03:17AM 52.4052 -36.8542 79° East  Level FlightAware Approximate
03:18AM 52.4324 -36.6147 79° East  Level FlightAware Approximate
03:19AM 52.4591 -36.3749 80° East  Level FlightAware Approximate
03:20AM 52.4852 -36.1347 80° East  Level FlightAware Approximate
03:21AM 52.5109 -35.8943 80° East  Level FlightAware Approximate
03:22AM 52.5362 -35.6536 80° East  Level FlightAware Approximate
03:23AM 52.5609 -35.4126 80° East  Level FlightAware Approximate
03:24AM 52.5851 -35.1714 81° East  Level FlightAware Approximate
03:25AM 52.6088 -34.9299 81° East  Level FlightAware Approximate
03:26AM 52.6321 -34.6881 81° East  Level FlightAware Approximate
03:27AM 52.6549 -34.4461 81° East  Level FlightAware Approximate
03:28AM 52.6771 -34.2039 81° East  Level FlightAware Approximate
03:29AM 52.6989 -33.9613 81° East  Level FlightAware Approximate
03:30AM 52.7202 -33.7186 82° East  Level FlightAware Approximate
03:31AM 52.7410 -33.4756 82° East  Level FlightAware Approximate
03:32AM 52.7612 -33.2324 82° East  Level FlightAware Approximate
03:33AM 52.7810 -32.9890 82° East  Level FlightAware Approximate
03:34AM 52.8003 -32.7453 82° East  Level FlightAware Approximate
03:35AM 52.8193 -32.5015 82° East  Level FlightAware Approximate
03:36AM 52.8393 -32.2578 82° East  Level FlightAware Approximate
03:37AM 52.8588 -32.0138 82° East  Level FlightAware Approximate
03:38AM 52.8778 -31.7697 83° East  Level FlightAware Approximate
03:39AM 52.8963 -31.5253 83° East  Level FlightAware Approximate
03:40AM 52.9142 -31.2807 83° East  Level FlightAware Approximate
03:41AM 52.9317 -31.0360 83° East  Level FlightAware Approximate
03:42AM 52.9487 -30.7910 83° East  Level FlightAware Approximate
03:43AM 52.9651 -30.5463 84° East  Level FlightAware Approximate
03:44AM 52.9811 -30.3014 84° East  Level FlightAware Approximate
03:45AM 52.9965 -30.0563 84° East  Level FlightAware Approximate
03:46AM 53.0078 -29.8105 86° East  Level FlightAware Approximate
03:47AM 53.0175 -29.5645 86° East  Level FlightAware Approximate
03:48AM 53.0267 -29.3184 86° East  Level FlightAware Approximate
03:49AM 53.0354 -29.0721 87° East  Level FlightAware Approximate
03:50AM 53.0435 -28.8258 87° East  Level FlightAware Approximate
03:51AM 53.0512 -28.5793 87° East  Level FlightAware Approximate
03:52AM 53.0584 -28.3328 87° East  Level FlightAware Approximate
03:53AM 53.0650 -28.0863 87° East  Level FlightAware Approximate
03:54AM 53.0711 -27.8396 88° East  Level FlightAware Approximate
03:55AM 53.0768 -27.5929 88° East  Level FlightAware Approximate
03:56AM 53.0819 -27.3461 88° East  Level FlightAware Approximate
03:57AM 53.0865 -27.0992 88° East  Level FlightAware Approximate
03:58AM 53.0905 -26.8523 88° East  Level FlightAware Approximate
03:59AM 53.0941 -26.6054 89° East  Level FlightAware Approximate
04:00AM 53.0972 -26.3584 89° East  Level FlightAware Approximate
04:01AM 53.0998 -26.1114 89° East  Level FlightAware Approximate
04:02AM 53.1018 -25.8643 89° East  Level FlightAware Approximate
04:03AM 53.1033 -25.6173 89° East  Level FlightAware Approximate
04:04AM 53.1044 -25.3702 90° East  Level FlightAware Approximate
04:05AM 53.1049 -25.1231 90° East  Level FlightAware Approximate
04:06AM 53.1049 -24.8761 90° East  Level FlightAware Approximate
04:07AM 53.1044 -24.6290 90° East  Level FlightAware Approximate
04:08AM 53.1033 -24.3819 90° East  Level FlightAware Approximate
04:09AM 53.1018 -24.1348 90° East  Level FlightAware Approximate
04:10AM 53.0998 -23.8878 91° East  Level FlightAware Approximate
04:11AM 53.0972 -23.6408 91° East  Level FlightAware Approximate
04:12AM 53.0941 -23.3938 91° East  Level FlightAware Approximate
04:13AM 53.0905 -23.1469 91° East  Level FlightAware Approximate
04:14AM 53.0864 -22.9000 91° East  Level FlightAware Approximate
04:15AM 53.0818 -22.6531 92° East  Level FlightAware Approximate
04:16AM 53.0767 -22.4063 92° East  Level FlightAware Approximate
04:17AM 53.0711 -22.1596 92° East  Level FlightAware Approximate
04:18AM 53.0650 -21.9125 92° East  Level FlightAware Approximate
04:19AM 53.0583 -21.6655 92° East  Level FlightAware Approximate
04:20AM 53.0511 -21.4185 93° East  Level FlightAware Approximate
04:21AM 53.0435 -21.1717 93° East  Level FlightAware Approximate
04:22AM 53.0353 -20.9249 93° East  Level FlightAware Approximate
04:23AM 53.0266 -20.6782 93° East  Level FlightAware Approximate
04:24AM 53.0174 -20.4316 93° East  Level FlightAware Approximate
04:25AM 53.0076 -20.1852 94° East  Level FlightAware Approximate
04:26AM 52.9998 -19.9387 90° East  Level FlightAware Approximate
04:27AM 52.9989 -19.6918 90° East  Level FlightAware Approximate
04:28AM 52.9974 -19.4449 90° East  Level FlightAware Approximate
04:29AM 52.9954 -19.1980 91° East  Level FlightAware Approximate
04:30AM 52.9930 -18.9511 91° East  Level FlightAware Approximate
04:31AM 52.9899 -18.7043 91° East  Level FlightAware Approximate
04:32AM 52.9864 -18.4575 91° East  Level FlightAware Approximate
04:33AM 52.9824 -18.2095 91° East  Level FlightAware Approximate
04:34AM 52.9778 -17.9615 92° East  Level FlightAware Approximate
04:35AM 52.9728 -17.7135 92° East  Level FlightAware Approximate
04:36AM 52.9672 -17.4656 92° East  Level FlightAware Approximate
04:37AM 52.9611 -17.2191 92° East  Level FlightAware Approximate
04:38AM 52.9545 -16.9718 92° East  Level FlightAware Approximate
04:39AM 52.9474 -16.7245 93° East  Level FlightAware Approximate
04:40AM 52.9397 -16.4774 93° East  Level FlightAware Approximate
04:41AM 52.9316 -16.2303 93° East  Level FlightAware Approximate
04:42AM 52.9229 -15.9833 93° East  Level FlightAware Approximate
04:43AM 52.9138 -15.7365 93° East  Level FlightAware Approximate
04:44AM 52.9041 -15.4897 94° East  Level FlightAware Approximate
04:44AM 52.8230 -12.3590 94° East 588 677 35,100  Level FlightAware
04:45AM 52.8939 -15.2431 94° East  Level FlightAware Approximate
04:45AM 52.8100 -12.2040 98° East 589 678 35,100  Level FlightAware
04:45AM 52.7980 -12.0520 97° East 588 677 35,100  Level FlightAware
04:46AM 52.7840 -11.8880 98° East 587 676 35,100  Level FlightAware
04:47AM 52.7710 -11.7370 98° East 586 674 35,100  Level FlightAware
04:47AM 52.7580 -11.5830 98° East 586 674 35,100  Level FlightAware
04:48AM 52.7440 -11.4280 98° East 586 674 35,100  Level FlightAware
04:49AM 52.7260 -11.2190 98° East 585 673 35,100  Level FlightAware
04:49AM 52.7110 -11.0620 99° East 583 671 35,100  Level FlightAware
04:50AM 52.6970 -10.9130 99° East 583 671 35,100  Level FlightAware
04:50AM 52.6840 -10.7690 98° East 580 667 35,100  Level FlightAware
04:51AM 52.6690 -10.6120 99° East 580 667 35,100  Level FlightAware
04:51AM 52.6520 -10.4410 99° East 580 667 35,100  Level FlightAware
04:52AM 52.6410 -10.3280 99° East 579 666 35,100  Level FlightAware
04:53AM 52.6220 -10.1280 99° East 580 667 35,100  Level FlightAware
04:53AM 52.6000 -9.9120 99° East 577 664 35,100  Level FlightAware
04:54AM 52.5910 -9.8260 100° East 576 663 35,100  Level FlightAware
04:54AM 52.5730 -9.6530 100° East 575 662 35,100  Level FlightAware
04:55AM 52.5570 -9.5030 100° East 573 659 35,100  Level FlightAware
04:56AM 52.5390 -9.3280 100° East 571 657 35,100  Level FlightAware
04:56AM 52.5230 -9.1870 101° East 570 656 35,100  Level FlightAware
04:57AM 52.5070 -9.0350 100° East 569 655 35,100  Level FlightAware
04:57AM 52.4910 -8.8900 100° East 569 655 35,100 -180 Level FlightAware
04:58AM 52.4877 -8.8624 100° East 496 571 35,000 -180 Descending FlightAware UK
04:58AM 52.4734 -8.7350 100° East 494 568 35,000 180 Level FlightAware UK
04:58AM 52.4740 -8.7380 100° East 567 652 35,100 120 Climbing FlightAware
04:59AM 52.4550 -8.5730 101° East 565 650 35,100  Level FlightAware
04:59AM 52.4400 -8.4430 101° East 563 648 35,100  Level FlightAware
05:00AM 52.4240 -8.3010 100° East 560 644 35,100  Level FlightAware
05:00AM 52.4040 -8.1340 100° East 558 642 35,100 -180 Level FlightAware
05:01AM 52.4007 -8.1041 100° East 496 571 35,000 -180 Descending FlightAware UK
05:01AM 52.3865 -7.9787 100° East 494 568 35,000 180 Level FlightAware UK
05:01AM 52.3870 -7.9890 100° East 556 640 35,100  Climbing FlightAware
05:02AM 52.3715 -7.8548 100° East 494 568 35,000  Descending FlightAware UK
05:02AM 52.3700 -7.8480 100° East 555 639 35,100 60 Climbing FlightAware
05:02AM 52.3460 -7.6550 101° East 553 636 35,100  Level FlightAware
05:03AM 52.3280 -7.5040 101° East 551 634 35,100 -120 Level FlightAware
05:04AM 52.3081 -7.3407 101° East 492 566 35,000  Descending FlightAware UK
05:04AM 52.3100 -7.3620 101° East 550 633 35,100 120 Climbing FlightAware
05:04AM 52.2920 -7.2200 101° East 548 631 35,100 -240 Level FlightAware
05:04AM 52.2897 -7.1948 101° East 492 566 35,000 -240 Descending FlightAware UK
05:05AM 52.2741 -7.0726 101° East 486 559 35,000 120 Level FlightAware UK
05:05AM 52.2710 -7.0500 101° East 548 631 35,100 120 Climbing FlightAware
05:05AM 52.2520 -6.9050 102° East 550 633 35,100  Level FlightAware
05:06AM 52.2330 -6.7630 102° East 552 635 35,100  Level FlightAware
05:07AM 52.2220 -6.6730 101° East 552 635 35,100  Level FlightAware
05:07AM 52.1960 -6.4820 102° East 553 636 35,100 -120 Level FlightAware
05:08AM 52.1785 -6.3432 102° East 496 571 35,000  Descending FlightAware UK
05:08AM 52.1760 -6.3320 102° East 553 636 35,100 120 Climbing FlightAware
05:08AM 52.1580 -6.1930 102° East 553 636 35,100  Level FlightAware
05:09AM 52.1390 -6.0560 103° East 553 636 35,100  Level FlightAware
05:10AM 52.1180 -5.9060 103° East 553 636 35,100  Level FlightAware
05:10AM 52.1000 -5.7720 102° East 553 636 35,100  Level FlightAware
05:11AM 52.0800 -5.6300 103° East 554 638 35,100  Level FlightAware
05:11AM 52.0610 -5.5010 103° East 554 638 35,100 -240 Level FlightAware
05:11AM 52.0601 -5.4911 103° East 494 568 35,000 -240 Descending FlightAware UK
05:12AM 52.0429 -5.3699 103° East 496 571 35,000 120 Level FlightAware UK
05:12AM 52.0380 -5.3350 103° East 554 638 35,100 120 Climbing FlightAware
05:12AM 52.0190 -5.2060 103° East 553 636 35,100  Level FlightAware
05:13AM 51.9980 -5.0560 103° East 555 639 35,100  Level FlightAware
05:14AM 51.9850 -4.9240 99° East 558 642 35,100  Level FlightAware
05:14AM 51.9710 -4.7670 99° East 560 644 35,100 -180 Level FlightAware
05:14AM 51.9703 -4.7559 99° East 494 568 35,000  Descending FlightAware UK
05:15AM 51.9590 -4.6170 97° East 560 644 35,100  Climbing FlightAware
05:15AM 51.9477 -4.4823 97° East 492 566 35,000  Descending FlightAware UK
05:15AM 51.9480 -4.4850 97° East 560 644 35,100 120 Climbing FlightAware
05:16AM 51.9340 -4.3360 99° East 560 644 35,100 -120 Level FlightAware
05:17AM 51.9215 -4.1837 99° East 492 566 35,000  Descending FlightAware UK
05:17AM 51.9210 -4.1860 99° East 560 644 35,100 180 Climbing FlightAware
05:17AM 51.9090 -4.0530 98° East 561 646 35,100  Level FlightAware
05:18AM 51.8960 -3.9120 98° East 563 648 35,100  Level FlightAware
05:18AM 51.8810 -3.7500 98° East 563 648 35,100  Level FlightAware
05:19AM 51.8670 -3.6000 99° East 564 649 35,100 240 Level FlightAware
05:19AM 51.8540 -3.4620 99° East 565 650 35,400 840 Climbing FlightAware
05:20AM 51.8400 -3.3250 99° East 565 650 36,100 1,140 Climbing FlightAware
05:21AM 51.8250 -3.1710 99° East 564 649 36,800 840 Climbing FlightAware
05:21AM 51.8110 -3.0290 99° East 567 652 37,100 240 Climbing FlightAware
05:22AM 51.7960 -2.8790 99° East 567 652 37,100  Level FlightAware
05:22AM 51.7800 -2.7250 99° East 565 650 37,100  Level FlightAware
05:23AM 51.7694 -2.6167 99° East 567 652 37,100  Level FlightAware ADS-B
05:24AM 51.7510 -2.4460 99° East 565 650 37,100 -180 Level FlightAware
05:24AM 51.7501 -2.4322 99° East 498 573 37,000  Descending FlightAware UK
05:24AM 51.7448 -2.3839 99° East 566 651 37,100 60 Climbing FlightAware ADS-B
05:25AM 51.7230 -2.1810 99° East 562 647 37,100 -120 Level FlightAware
05:25AM 51.7208 -2.1588 99° East 496 571 37,000  Descending FlightAware UK
05:25AM 51.7060 -2.0248 100° East 561 646 37,100 60 Climbing FlightAware ADS-B
05:26AM 51.6911 -1.8897 100° East 558 642 37,100  Level FlightAware ADS-B
05:26AM 51.6766 -1.7594 100° East 557 641 37,100  Level FlightAware ADS-B
05:27AM 51.6620 -1.6293 100° East 554 638 37,100  Level FlightAware ADS-B
05:27AM 51.6481 -1.5082 100° East 551 634 37,100  Level FlightAware ADS-B
05:28AM 51.6323 -1.3677 100° East 549 632 37,100  Level FlightAware ADS-B
05:28AM 51.6180 -1.2437 100° East 548 631 37,100  Level FlightAware ADS-B
05:29AM 51.6039 -1.1238 101° East 547 629 37,100  Level FlightAware ADS-B
05:29AM 51.5892 -0.9999 101° East 548 631 37,100  Level FlightAware ADS-B
05:30AM 51.5708 -0.8446 101° East 549 632 37,100  Level FlightAware ADS-B
05:31AM 51.5559 -0.7206 101° East 548 631 37,100  Level FlightAware ADS-B
05:31AM 51.5404 -0.5933 101° East 547 629 37,100  Level FlightAware ADS-B
05:32AM 51.5249 -0.4665 101° East 543 625 37,100  Level FlightAware ADS-B
05:32AM 51.5099 -0.3481 101° East 541 623 37,100  Level FlightAware ADS-B
05:33AM 51.4926 -0.2071 101° East 540 621 37,100  Level FlightAware ADS-B
05:33AM 51.4759 -0.0780 102° East 538 619 37,100  Level FlightAware ADS-B
05:34AM 51.4594 0.0542 101° East 536 617 37,100  Level FlightAware ADS-B
05:34AM 51.4418 0.1898 102° East 534 615 37,100  Level FlightAware ADS-B
05:35AM 51.4267 0.3058 102° East 534 615 37,100 -120 Level FlightAware ADS-B
05:36AM 51.4113 0.4257 102° East 492 566 37,000  Descending FlightAware UK
05:36AM 51.4070 0.4560 102° East 533 613 37,100  Climbing FlightAware
05:37AM 51.3805 0.6568 102° East 492 566 37,000  Descending FlightAware UK
05:37AM 51.3810 0.6530 102° East 532 612 37,100 360 Climbing FlightAware
05:37AM 51.3721 0.7179 102° East 532 612 37,100  Level FlightAware ADS-B
05:37AM 51.3553 0.8442 102° East 531 611 37,100  Level FlightAware ADS-B
05:38AM 51.3260 1.0550 102° East 530 610 37,100  Level FlightAware
05:39AM 51.3070 1.1920 102° East 529 609 37,100  Level FlightAware
05:39AM 51.2900 1.3100 103° East 530 610 37,100 -120 Level FlightAware
05:40AM 51.2589 1.4577 103° East 492 566 37,000  Descending FlightAware UK
05:40AM 51.2600 1.4510 103° East 534 615 37,100 120 Climbing FlightAware
05:41AM 51.2250 1.5760 114° Southeast 535 616 37,100 -120 Level FlightAware
05:41AM 51.1908 1.6939 114° Southeast 490 564 37,000  Descending FlightAware UK
05:41AM 51.1870 1.7050 114° Southeast 533 613 37,100  Climbing FlightAware
05:42AM 51.1537 1.8228 114° Southeast 490 564 37,000  Descending FlightAware UK
05:42AM 51.1520 1.8260 114° Southeast 531 611 37,100 120 Climbing FlightAware
05:42AM 51.1140 1.9570 115° Southeast 533 613 37,100  Level FlightAware
05:43AM 51.0800 2.0740 115° Southeast 535 616 37,100  Level FlightAware
05:44AM 51.0410 2.2060 115° Southeast 538 619 37,100  Level FlightAware
05:44AM 51.0070 2.3200 115° Southeast 539 620 37,100  Level FlightAware
05:45AM 50.9700 2.4420 116° Southeast 541 623 37,100  Level FlightAware
05:45AM 50.9320 2.5680 116° Southeast 543 625 37,100 -120 Level FlightAware
05:46AM 50.8853 2.7238 116° Southeast 494 568 37,000  Descending FlightAware UK
05:46AM 50.8910 2.7040 116° Southeast 543 625 37,100  Climbing FlightAware
05:46AM 50.8526 2.8312 116° Southeast 494 568 37,000  Descending FlightAware UK
05:46AM 50.8490 2.8430 116° Southeast 543 625 37,100 120 Climbing FlightAware
05:47AM 50.8080 2.9750 116° Southeast 543 625 37,100  Level FlightAware
05:48AM 50.7700 3.1000 116° Southeast 543 625 37,100  Level FlightAware
05:48AM 50.7230 3.2530 116° Southeast 542 624 37,100  Level FlightAware
05:49AM 50.6800 3.3880 117° Southeast 542 624 37,100  Level FlightAware
05:50AM 50.6380 3.5220 116° Southeast 542 624 37,100  Level FlightAware
05:50AM 50.6020 3.6390 116° Southeast 541 623 37,100  Level FlightAware
05:51AM 50.5570 3.7790 117° Southeast 540 621 37,100  Level FlightAware
05:51AM 50.5230 3.8880 116° Southeast 539 620 37,100  Level FlightAware
05:52AM 50.4820 4.0170 117° Southeast 538 619 37,100  Level FlightAware
05:53AM 50.4430 4.1390 117° Southeast 537 618 37,100  Level FlightAware
05:53AM 50.4050 4.2530 118° Southeast 535 616 37,100  Level FlightAware
05:54AM 50.3660 4.3740 117° Southeast 533 613 37,100  Level FlightAware
05:54AM 50.3180 4.5250 116° Southeast 531 611 37,100  Level FlightAware
05:55AM 50.2790 4.6410 118° Southeast 530 610 37,100  Level FlightAware
05:56AM 50.2430 4.7530 117° Southeast 530 610 37,100  Level FlightAware
05:56AM 50.2020 4.8750 118° Southeast 530 610 37,100  Level FlightAware
05:57AM 50.1620 4.9940 118° Southeast 530 610 37,100  Level FlightAware
05:57AM 50.1230 5.1120 117° Southeast 530 610 37,100  Level FlightAware
05:58AM 50.0730 5.2610 118° Southeast 530 610 37,100  Level FlightAware
05:59AM 50.0380 5.3660 117° Southeast 529 609 37,100  Level FlightAware
05:59AM 49.9950 5.4930 118° Southeast 528 608 37,100  Level FlightAware
06:00AM 49.9590 5.5970 118° Southeast 529 609 37,100  Level FlightAware
06:00AM 49.9230 5.7040 118° Southeast 528 608 37,100  Level FlightAware
06:01AM 49.8800 5.8280 118° Southeast 525 604 37,100  Level FlightAware
06:02AM 49.8320 5.9680 118° Southeast 526 605 37,100  Level FlightAware
06:02AM 49.8000 6.0600 118° Southeast 522 601 37,100  Level FlightAware
06:03AM 49.7480 6.2120 118° Southeast 523 602 37,100  Level FlightAware
06:03AM 49.7040 6.3370 119° Southeast 523 602 37,100  Level FlightAware
06:04AM 49.6660 6.4420 119° Southeast 523 602 37,100  Level FlightAware
06:05AM 49.6250 6.5600 118° Southeast 523 602 37,100  Level FlightAware
06:05AM 49.5840 6.6770 118° Southeast 524 603 37,100  Level FlightAware
06:06AM 49.5510 6.7690 119° Southeast 524 603 37,100  Level FlightAware
06:06AM 49.5010 6.9090 119° Southeast 524 603 37,100  Level FlightAware
06:07AM 49.4620 7.0160 119° Southeast 523 602 37,100  Level FlightAware
06:08AM 49.4160 7.1260 123° Southeast 523 602 37,100  Level FlightAware
06:08AM 49.3670 7.2320 125° Southeast 521 600 37,100  Level FlightAware
06:09AM 49.3180 7.3360 126° Southeast 391 450 37,100  Level FlightAware
06:09AM 49.2610 7.4570 126° Southeast 517 595 37,100  Level FlightAware
06:10AM 49.2080 7.5660 127° Southeast 514 592 37,100  Level FlightAware
06:11AM 49.1660 7.6520 127° Southeast 511 588 37,100  Level FlightAware
06:11AM 49.1100 7.7650 127° Southeast 508 585 37,100  Level FlightAware
06:12AM 49.0600 7.8680 127° Southeast 507 583 37,100  Level FlightAware
06:12AM 49.0060 7.9710 129° Southeast 501 577 37,100  Level FlightAware
06:13AM 48.9450 8.0690 133° Southeast 504 580 37,100  Level FlightAware
06:14AM 48.8680 8.1830 136° Southeast 497 572 37,100  Level FlightAware
06:14AM 48.8140 8.2610 136° Southeast 494 568 37,100  Level FlightAware
06:15AM 48.7500 8.3550 136° Southeast 490 564 37,100  Level FlightAware
06:16AM 48.7040 8.4220 136° Southeast 493 567 37,100  Level FlightAware
06:16AM 48.6380 8.5160 137° Southeast 492 566 37,100  Level FlightAware
06:17AM 48.5810 8.5990 136° Southeast 491 565 37,100  Level FlightAware
06:17AM 48.5320 8.6680 137° Southeast 493 567 37,100  Level FlightAware
06:18AM 48.4610 8.7690 137° Southeast 488 562 37,100  Level FlightAware
06:19AM 48.3970 8.8620 136° Southeast 494 568 37,100  Level FlightAware
06:19AM 48.3390 8.9430 137° Southeast 495 570 37,100  Level FlightAware
06:20AM 48.2680 9.0440 137° Southeast 496 571 37,100  Level FlightAware
06:20AM 48.2150 9.1200 136° Southeast 495 570 37,100  Level FlightAware
06:21AM 48.1410 9.2220 137° Southeast 495 570 37,100  Level FlightAware
06:22AM 48.0910 9.2930 137° Southeast 495 570 37,100  Level FlightAware
06:22AM 48.0210 9.3900 137° Southeast 495 570 37,100  Level FlightAware
06:23AM 47.9670 9.4650 137° Southeast 494 568 37,100  Level FlightAware
06:23AM 47.9120 9.5420 137° Southeast 493 567 37,100  Level FlightAware
06:24AM 47.8480 9.6310 137° Southeast 491 565 37,100  Level FlightAware
06:25AM 47.7860 9.7160 137° Southeast 491 565 37,100  Level FlightAware
06:25AM 47.7400 9.7790 137° Southeast 491 565 37,100  Level FlightAware
06:26AM 47.6770 9.8650 137° Southeast 490 564 37,100  Level FlightAware
06:26AM 47.6110 9.9550 137° Southeast 496 571 37,100  Level FlightAware
06:27AM 47.5470 10.0420 137° Southeast 495 570 37,100  Level FlightAware
06:27AM 47.4870 10.1240 137° Southeast 495 570 37,100  Level FlightAware
06:28AM 47.4260 10.2060 138° Southeast 496 571 37,100  Level FlightAware
06:29AM 47.3770 10.2700 138° Southeast 495 570 37,100  Level FlightAware
06:29AM 47.3230 10.3430 137° Southeast 496 571 37,100  Level FlightAware
06:30AM 47.2400 10.4540 138° Southeast 496 571 37,100  Level FlightAware
06:31AM 47.1760 10.5400 138° Southeast 494 568 37,100  Level FlightAware
06:31AM 47.1140 10.6230 138° Southeast 494 568 37,100  Level FlightAware
06:32AM 47.0460 10.7090 139° Southeast 493 567 37,100  Level FlightAware
06:32AM 46.9910 10.7590 148° Southeast 492 566 37,100  Level FlightAware
06:33AM 46.9260 10.7970 158° South 493 567 37,100  Level FlightAware
06:33AM 46.8510 10.8510 154° Southeast 494 568 37,100  Level FlightAware
06:34AM 46.7990 10.9210 137° Southeast 498 573 37,100  Level FlightAware
06:35AM 46.7450 11.0090 132° Southeast 497 572 37,100  Level FlightAware
06:35AM 46.6900 11.1020 131° Southeast 496 571 37,100  Level FlightAware
06:36AM 46.6420 11.1830 131° Southeast 496 571 37,100  Level FlightAware
06:36AM 46.5820 11.2800 132° Southeast 497 572 37,100  Level FlightAware
06:37AM 46.5220 11.3770 132° Southeast 496 571 37,100  Level FlightAware
06:38AM 46.4650 11.4710 131° Southeast 493 567 37,100  Level FlightAware
06:38AM 46.4060 11.5670 132° Southeast 492 566 37,100  Level FlightAware
06:39AM 46.3570 11.6460 132° Southeast 493 567 37,100  Level FlightAware
06:39AM 46.3050 11.7290 132° Southeast 492 566 37,100  Level FlightAware
06:40AM 46.2530 11.8150 131° Southeast 491 565 37,100  Level FlightAware
06:41AM 46.2010 11.8980 132° Southeast 490 564 37,100  Level FlightAware
06:41AM 46.1470 11.9830 133° Southeast 490 564 37,100  Level FlightAware
06:42AM 46.0870 12.0790 132° Southeast 489 563 37,100  Level FlightAware
06:42AM 46.0370 12.1590 132° Southeast 489 563 37,100  Level FlightAware
06:43AM 45.9880 12.2360 132° Southeast 488 562 37,100  Level FlightAware
06:43AM 45.9320 12.3250 132° Southeast 488 562 37,100  Level FlightAware
06:44AM 45.8820 12.4040 132° Southeast 488 562 37,100  Level FlightAware
06:45AM 45.8170 12.5070 132° Southeast 489 563 37,100  Level FlightAware
06:45AM 45.7620 12.5920 133° Southeast 483 556 37,100  Level FlightAware
06:46AM 45.7090 12.6730 133° Southeast 483 556 37,100  Level FlightAware
06:47AM 45.6510 12.7640 132° Southeast 482 555 37,100  Level FlightAware
06:47AM 45.5820 12.8700 133° Southeast 487 560 37,100  Level FlightAware
06:48AM 45.5320 12.9480 132° Southeast 481 554 37,100  Level FlightAware
06:48AM 45.4740 13.0370 133° Southeast 480 552 37,100  Level FlightAware
06:49AM 45.4230 13.1170 132° Southeast 482 555 37,100  Level FlightAware
06:50AM 45.3720 13.2040 130° Southeast 478 550 37,100  Level FlightAware
06:50AM 45.3240 13.2930 127° Southeast 478 550 37,100  Level FlightAware
06:51AM 45.2860 13.3700 125° Southeast 478 550 37,100  Level FlightAware
06:52AM 45.2150 13.5080 126° Southeast 477 549 37,100  Level FlightAware
06:52AM 45.1760 13.5850 126° Southeast 476 548 37,100  Level FlightAware
06:53AM 45.1250 13.6850 126° Southeast 477 549 37,100  Level FlightAware
06:53AM 45.0690 13.7940 126° Southeast 477 549 37,100  Level FlightAware
06:54AM 45.0320 13.8630 127° Southeast 478 550 37,100  Level FlightAware
06:55AM 44.9770 13.9700 126° Southeast 484 557 37,100  Level FlightAware
06:55AM 44.9300 14.0590 127° Southeast 485 558 37,100  Level FlightAware
06:56AM 44.8760 14.1630 126° Southeast 486 559 37,100  Level FlightAware
06:57AM 44.8120 14.2850 126° Southeast 485 558 37,100  Level FlightAware
06:58AM 44.7430 14.4150 127° Southeast 487 560 37,100  Level FlightAware
06:58AM 44.6920 14.5120 126° Southeast 488 562 37,100  Level FlightAware
06:59AM 44.6490 14.5930 127° Southeast 488 562 37,100  Level FlightAware
06:59AM 44.6050 14.6740 127° Southeast 488 562 37,100  Level FlightAware
07:00AM 44.5640 14.7530 126° Southeast 488 562 37,100  Level FlightAware
07:01AM 44.4990 14.8730 127° Southeast 489 563 37,100  Level FlightAware
07:01AM 44.4320 14.9970 127° Southeast 484 557 37,100  Level FlightAware
07:02AM 44.3820 15.0880 128° Southeast 484 557 37,100  Level FlightAware
07:03AM 44.3290 15.1860 127° Southeast 488 562 37,100  Level FlightAware
07:03AM 44.2800 15.2760 127° Southeast 486 559 37,100 600 Level FlightAware
07:04AM 44.1910 15.4370 128° Southeast 489 563 38,100 600 Climbing FlightAware
07:05AM 44.1450 15.5240 126° Southeast 492 566 38,200 720 Climbing FlightAware
07:06AM 44.0830 15.6320 129° Southeast 486 559 39,100 780 Climbing FlightAware
07:06AM 44.0400 15.7120 127° Southeast 444 511 39,100  Level FlightAware
07:07AM 43.9940 15.7950 128° Southeast 487 560 39,100  Level FlightAware
07:08AM 43.9210 15.9290 127° Southeast 485 558 39,100  Level FlightAware
07:08AM 43.8590 16.0390 128° Southeast 483 556 39,100  Level FlightAware
07:09AM 43.8180 16.1140 127° Southeast 483 556 39,100  Level FlightAware
07:10AM 43.7590 16.2170 128° Southeast 481 554 39,100  Level FlightAware
07:10AM 43.7180 16.2920 127° Southeast 481 554 39,100  Level FlightAware
07:11AM 43.6390 16.4270 129° Southeast 482 555 39,100  Level FlightAware
07:12AM 43.5860 16.5180 129° Southeast 484 557 39,100 -120 Level FlightAware
07:12AM 43.5450 16.5920 127° Southeast 490 564 39,000  Descending FlightAware
07:13AM 43.4930 16.6830 128° Southeast 492 566 39,100 60 Climbing FlightAware
07:13AM 43.4400 16.7740 129° Southeast 495 570 39,100  Level FlightAware
07:14AM 43.3980 16.8480 128° Southeast 498 573 39,100  Level FlightAware
07:14AM 43.3410 16.9480 128° Southeast 496 571 39,100  Level FlightAware
07:15AM 43.2930 17.0280 129° Southeast 498 573 39,100  Level FlightAware
07:16AM 43.2430 17.1150 128° Southeast 499 574 39,100  Level FlightAware
07:16AM 43.1920 17.2030 128° Southeast 502 578 39,100  Level FlightAware
07:17AM 43.1330 17.3030 129° Southeast 503 579 39,100  Level FlightAware
07:17AM 43.0850 17.3860 128° Southeast 503 579 39,100  Level FlightAware
07:18AM 43.0280 17.4830 129° Southeast 502 578 39,100  Level FlightAware
07:19AM 42.9750 17.5710 129° Southeast 501 577 39,100  Level FlightAware
07:19AM 42.9200 17.6660 128° Southeast 502 578 39,100  Level FlightAware
07:20AM 42.8810 17.7300 130° Southeast 502 578 39,100  Level FlightAware
07:20AM 42.8230 17.8290 129° Southeast 506 582 39,100  Level FlightAware
07:21AM 42.7650 17.9280 129° Southeast 506 582 39,100  Level FlightAware
07:22AM 42.6930 18.0470 129° Southeast 506 582 39,100  Level FlightAware
07:22AM 42.6380 18.1370 130° Southeast 506 582 39,100  Level FlightAware
07:23AM 42.5840 18.2260 129° Southeast 507 583 39,100  Level FlightAware
07:24AM 42.5220 18.3240 131° Southeast 507 583 39,100  Level FlightAware
07:24AM 42.4470 18.4210 136° Southeast 508 585 39,100  Level FlightAware
07:25AM 42.4030 18.4780 136° Southeast 509 586 39,100  Level FlightAware
07:26AM 42.3460 18.5510 137° Southeast 510 587 39,100  Level FlightAware
07:26AM 42.2620 18.6580 137° Southeast 512 589 39,100  Level FlightAware
07:27AM 42.1890 18.7500 137° Southeast 513 590 39,100  Level FlightAware
07:28AM 42.1210 18.8380 136° Southeast 513 590 39,100  Level FlightAware
07:28AM 42.0650 18.9080 137° Southeast 512 589 39,100  Level FlightAware
07:29AM 42.0030 18.9860 137° Southeast 512 589 39,100  Level FlightAware
07:29AM 41.9360 19.0720 136° Southeast 626 720 39,100  Level FlightAware
07:30AM 41.8740 19.1480 138° Southeast 512 589 39,100  Level FlightAware
07:30AM 41.8240 19.2110 137° Southeast 512 589 39,100  Level FlightAware
07:31AM 41.7520 19.3020 137° Southeast 512 589 39,100  Level FlightAware
07:32AM 41.6850 19.3860 137° Southeast 510 587 39,100  Level FlightAware
07:32AM 41.6320 19.4500 138° Southeast 509 586 39,100  Level FlightAware
07:33AM 41.5690 19.5290 137° Southeast 508 585 39,100  Level FlightAware
07:33AM 41.5940 19.4970 316° Northwest 508 585 39,100  Level FlightAware
07:34AM 41.5940 19.4970 316° Northwest 507 583 39,100  Level FlightAware
07:35AM 41.3890 19.7510 137° Southeast 507 583 39,100  Level FlightAware
07:35AM 41.3200 19.8470 134° Southeast 507 583 39,100  Level FlightAware
07:36AM 41.2630 19.9230 135° Southeast 507 583 39,100  Level FlightAware
07:36AM 41.2140 19.9920 133° Southeast 507 583 39,100  Level FlightAware
07:37AM 41.1500 20.0760 135° Southeast 508 585 39,100  Level FlightAware
07:38AM 41.0890 20.1580 135° Southeast 509 586 39,100  Level FlightAware
07:38AM 41.0290 20.2370 135° Southeast 510 587 39,100  Level FlightAware
07:39AM 40.9700 20.3150 135° Southeast 511 588 39,100  Level FlightAware
07:40AM 40.8920 20.4190 135° Southeast 512 589 39,100  Level FlightAware
07:40AM 40.8350 20.4910 136° Southeast 513 590 39,100  Level FlightAware
07:41AM 40.7710 20.5780 134° Southeast 514 592 39,100  Level FlightAware
07:41AM 40.7110 20.6550 136° Southeast 514 592 39,100  Level FlightAware
07:42AM 40.6480 20.7390 135° Southeast 515 593 39,100  Level FlightAware
07:43AM 40.5710 20.8380 136° Southeast 516 594 39,100  Level FlightAware
07:43AM 40.5100 20.9180 135° Southeast 516 594 39,100  Level FlightAware
07:44AM 40.4560 20.9950 133° Southeast 519 597 39,100  Level FlightAware
07:45AM 40.4020 21.0860 128° Southeast 520 598 39,100  Level FlightAware
07:45AM 40.3580 21.1620 127° Southeast 520 598 39,100  Level FlightAware
07:46AM 40.3050 21.2550 127° Southeast 521 600 39,100  Level FlightAware
07:46AM 40.2520 21.3460 127° Southeast 522 601 39,100  Level FlightAware
07:47AM 40.2000 21.4390 126° Southeast 523 602 39,100  Level FlightAware
07:48AM 40.1470 21.5300 127° Southeast 523 602 39,100  Level FlightAware
07:48AM 40.1000 21.6110 127° Southeast 525 604 39,100  Level FlightAware
07:49AM 40.0510 21.6980 126° Southeast 526 605 39,100  Level FlightAware
07:49AM 39.9980 21.7890 127° Southeast 527 606 39,100  Level FlightAware
07:50AM 39.9460 21.8780 127° Southeast 529 609 39,100  Level FlightAware
07:50AM 39.8920 21.9720 127° Southeast 530 610 39,100  Level FlightAware
07:51AM 39.8390 22.0610 128° Southeast 531 611 39,100  Level FlightAware
07:52AM 39.7840 22.1550 127° Southeast 531 611 39,100  Level FlightAware
07:52AM 39.7400 22.2310 127° Southeast 531 611 39,100  Level FlightAware
07:53AM 39.6840 22.3280 127° Southeast 531 611 39,100  Level FlightAware
07:53AM 39.6290 22.4190 128° Southeast 532 612 39,100  Level FlightAware
07:54AM 39.5800 22.5020 127° Southeast 532 612 39,100  Level FlightAware
07:55AM 39.5270 22.5930 127° Southeast 532 612 39,100  Level FlightAware
07:55AM 39.4720 22.6820 129° Southeast 533 613 39,100  Level FlightAware
07:56AM 39.4250 22.7620 127° Southeast 532 612 39,100  Level FlightAware
07:56AM 39.3690 22.8550 128° Southeast 531 611 39,100  Level FlightAware
07:57AM 39.3060 22.9610 128° Southeast 530 610 39,100  Level FlightAware
07:58AM 39.2560 23.0450 128° Southeast 530 610 39,100  Level FlightAware
07:58AM 39.2060 23.1280 128° Southeast 529 609 39,100  Level FlightAware
07:59AM 39.1520 23.2150 129° Southeast 528 608 39,100  Level FlightAware
07:59AM 39.1000 23.3010 128° Southeast 528 608 39,100  Level FlightAware
08:00AM 39.0490 23.3850 128° Southeast 528 608 39,100  Level FlightAware
08:00AM 38.9950 23.4740 128° Southeast 528 608 39,100  Level FlightAware
08:01AM 38.9440 23.5580 128° Southeast 529 609 39,100  Level FlightAware
08:02AM 38.8750 23.6700 128° Southeast 529 609 39,100  Level FlightAware
08:02AM 38.8170 23.7630 129° Southeast 528 608 39,100  Level FlightAware
08:03AM 38.7670 23.8440 128° Southeast 528 608 39,100  Level FlightAware
08:04AM 38.7130 23.9320 128° Southeast 528 608 39,100  Level FlightAware
08:04AM 38.6600 24.0180 128° Southeast 528 608 39,100  Level FlightAware
08:05AM 38.6030 24.1080 129° Southeast 527 606 39,100  Level FlightAware
08:05AM 38.5560 24.1840 128° Southeast 527 606 39,100  Level FlightAware
08:06AM 38.5010 24.2710 129° Southeast 527 606 39,100  Level FlightAware
08:06AM 38.4540 24.3490 128° Southeast 526 605 39,100  Level FlightAware
08:07AM 38.3920 24.4460 129° Southeast 525 604 39,100  Level FlightAware
08:08AM 38.3440 24.5230 128° Southeast 523 602 39,100  Level FlightAware
08:08AM 38.2880 24.6110 129° Southeast 521 600 39,100  Level FlightAware
08:09AM 38.2340 24.6970 129° Southeast 519 597 39,100  Level FlightAware
08:09AM 38.1860 24.7700 130° Southeast 515 593 39,100  Level FlightAware
08:10AM 38.1300 24.8600 128° Southeast 513 590 39,100  Level FlightAware
08:11AM 38.0760 24.9440 129° Southeast 511 588 39,100  Level FlightAware
08:11AM 38.0280 25.0200 129° Southeast 508 585 39,100  Level FlightAware
08:12AM 37.9730 25.1060 129° Southeast 505 581 39,100  Level FlightAware
08:12AM 37.9270 25.1760 130° Southeast 504 580 39,100  Level FlightAware
08:13AM 37.8730 25.2610 129° Southeast 503 579 39,100  Level FlightAware
08:13AM 37.8200 25.3410 130° Southeast 503 579 39,100  Level FlightAware
08:14AM 37.7700 25.4180 129° Southeast 503 579 39,100  Level FlightAware
08:15AM 37.7160 25.5030 129° Southeast 506 582 39,100  Level FlightAware
08:15AM 37.6620 25.5850 130° Southeast 507 583 39,100  Level FlightAware
08:16AM 37.6150 25.6580 129° Southeast 507 583 39,100  Level FlightAware
08:16AM 37.5650 25.7330 130° Southeast 507 583 39,100  Level FlightAware
08:17AM 37.5090 25.8180 130° Southeast 507 583 39,100  Level FlightAware
08:18AM 37.4550 25.9000 130° Southeast 507 583 39,100  Level FlightAware
08:18AM 37.4090 25.9700 130° Southeast 507 583 39,100  Level FlightAware
08:19AM 37.3510 26.0590 129° Southeast 509 586 39,100  Level FlightAware
08:19AM 37.2970 26.1410 130° Southeast 510 587 39,100  Level FlightAware
08:20AM 37.2490 26.2110 131° Southeast 511 588 39,100  Level FlightAware
08:20AM 37.1890 26.3020 130° Southeast 511 588 39,100  Level FlightAware
08:21AM 37.1450 26.3680 130° Southeast 511 588 39,100  Level FlightAware
08:22AM 37.0850 26.4570 130° Southeast 512 589 39,100  Level FlightAware
08:22AM 37.0300 26.5410 129° Southeast 512 589 39,100  Level FlightAware
08:23AM 36.9750 26.6230 130° Southeast 511 588 39,100  Level FlightAware
08:23AM 36.9270 26.6950 130° Southeast 511 588 39,100  Level FlightAware
08:24AM 36.8720 26.7760 130° Southeast 508 585 39,100  Level FlightAware
08:25AM 36.8180 26.8540 131° Southeast 507 583 39,100  Level FlightAware
08:25AM 36.7690 26.9260 130° Southeast 506 582 39,100  Level FlightAware
08:26AM 36.7150 27.0060 130° Southeast 505 581 39,100  Level FlightAware
08:26AM 36.6630 27.0810 131° Southeast 505 581 39,100  Level FlightAware
08:27AM 36.6110 27.1590 130° Southeast 506 582 39,100  Level FlightAware
08:27AM 36.5640 27.2290 130° Southeast 506 582 39,100  Level FlightAware
08:28AM 36.5180 27.2970 130° Southeast 506 582 39,100  Level FlightAware
08:29AM 36.4720 27.3660 130° Southeast 506 582 39,100  Level FlightAware
08:29AM 36.3890 27.4820 132° Southeast 506 582 39,100  Level FlightAware
08:30AM 36.3370 27.5570 131° Southeast 506 582 39,100  Level FlightAware
08:30AM 36.2830 27.6370 130° Southeast 507 583 39,100  Level FlightAware
08:31AM 36.2360 27.7050 131° Southeast 507 583 39,100  Level FlightAware
08:32AM 36.1900 27.7730 130° Southeast 507 583 39,100  Level FlightAware
08:32AM 36.1440 27.8410 130° Southeast 507 583 39,100  Level FlightAware
08:33AM 36.0500 27.9700 132° Southeast 508 585 39,100  Level FlightAware
08:34AM 36.0040 28.0380 130° Southeast 508 585 39,100  Level FlightAware
08:34AM 35.9580 28.1070 129° Southeast 508 585 39,100  Level FlightAware
08:35AM 35.8750 28.2170 133° Southeast 509 586 39,100  Level FlightAware
08:35AM 35.8260 28.2890 130° Southeast 509 586 39,100  Level FlightAware
08:36AM 35.7620 28.3770 132° Southeast 507 583 39,100  Level FlightAware
08:37AM 35.7080 28.4530 131° Southeast 506 582 39,100  Level FlightAware
08:37AM 35.6500 28.5350 131° Southeast 504 580 39,100  Level FlightAware
08:38AM 35.6020 28.6020 131° Southeast 503 579 39,100  Level FlightAware
08:38AM 35.5450 28.6810 132° Southeast 502 578 39,100  Level FlightAware
08:39AM 35.4700 28.7860 131° Southeast 501 577 39,100  Level FlightAware
08:40AM 35.4240 28.8510 131° Southeast 501 577 39,100  Level FlightAware
08:40AM 35.3770 28.9170 131° Southeast 501 577 39,100  Level FlightAware
08:41AM 35.3310 28.9830 130° Southeast 501 577 39,100  Level FlightAware
08:42AM 35.2840 29.0480 132° Southeast 501 577 39,100  Level FlightAware
08:42AM 35.2360 29.1160 131° Southeast 501 577 39,100  Level FlightAware
08:43AM 35.1900 29.1810 131° Southeast 501 577 39,100  Level FlightAware
08:43AM 35.1420 29.2480 131° Southeast 501 577 39,100  Level FlightAware
08:44AM 35.0960 29.3140 130° Southeast 501 577 39,100  Level FlightAware
08:45AM 35.0490 29.3790 131° Southeast 501 577 39,100  Level FlightAware
08:45AM 35.0010 29.4460 131° Southeast 501 577 39,100  Level FlightAware
08:46AM 34.9550 29.5120 130° Southeast 501 577 39,100  Level FlightAware
08:47AM 34.9080 29.5770 131° Southeast 501 577 39,100  Level FlightAware
08:47AM 34.8620 29.6420 131° Southeast 501 577 39,100  Level FlightAware
08:48AM 34.8150 29.7070 131° Southeast 501 577 39,100  Level FlightAware
08:48AM 34.7670 29.7740 131° Southeast 501 577 39,100  Level FlightAware
08:51AM 34.5956 30.1131 121° Southeast  Level Estimated
08:52AM 34.5167 30.2680 122° Southeast  Level Estimated
08:52AM 34.3990 30.4210 122° Southeast 496 571 39,100  Level FlightAware
08:52AM 34.3530 30.5150 121° Southeast 495 570 39,100  Level FlightAware
08:53AM 34.3200 30.5830 120° Southeast 495 570 39,100  Level FlightAware
08:53AM 34.2760 30.6720 121° Southeast 496 571 39,100  Level FlightAware
08:54AM 34.2270 30.7730 120° Southeast 496 571 39,100  Level FlightAware
08:55AM 34.1920 30.8450 120° Southeast 500 575 39,100  Level FlightAware
08:55AM 34.1490 30.9310 121° Southeast 500 575 39,100  Level FlightAware
08:56AM 34.1030 31.0250 121° Southeast 500 575 39,100  Level FlightAware
08:57AM 34.0480 31.1360 121° Southeast 501 577 39,100  Level FlightAware
08:57AM 34.0120 31.2080 121° Southeast 501 577 39,100  Level FlightAware
08:58AM 33.9710 31.2910 121° Southeast 501 577 39,100  Level FlightAware
08:58AM 33.9220 31.3900 121° Southeast 502 578 39,100  Level FlightAware
08:59AM 33.8820 31.4690 121° Southeast 502 578 39,100  Level FlightAware
09:00AM 33.8380 31.5580 121° Southeast 502 578 39,100  Level FlightAware
09:00AM 33.8030 31.6270 121° Southeast 503 579 39,100  Level FlightAware
09:01AM 33.7530 31.7250 122° Southeast 502 578 39,100  Level FlightAware
09:01AM 33.7100 31.8110 121° Southeast 503 579 39,100  Level FlightAware
09:02AM 33.6690 31.8950 120° Southeast 503 579 39,100  Level FlightAware
09:02AM 33.6330 31.9640 122° Southeast 503 579 39,100  Level FlightAware
09:03AM 33.5860 32.0570 121° Southeast 502 578 39,100  Level FlightAware
09:04AM 33.5500 32.1260 122° Southeast 502 578 39,100  Level FlightAware
09:04AM 33.4980 32.2270 122° Southeast 502 578 39,100  Level FlightAware
09:05AM 33.4560 32.3110 121° Southeast 503 579 39,100 -420 Level FlightAware
09:06AM 33.4000 32.4200 122° Southeast 499 574 38,600 -900 Descending FlightAware
09:06AM 33.3600 32.4980 122° Southeast 502 578 37,900 -1,260 Descending FlightAware
09:07AM 33.3150 32.5840 122° Southeast 507 583 37,100 -1,320 Descending FlightAware
09:07AM 33.2690 32.6730 122° Southeast 510 587 36,300 -2,040 Descending FlightAware
09:08AM 33.2330 32.7440 121° Southeast 507 583 34,900 -3,120 Descending FlightAware
09:09AM 33.1800 32.8450 122° Southeast 512 589 32,700 -2,940 Descending FlightAware
09:09AM 33.1400 32.9240 121° Southeast 508 585 31,200 -2,580 Descending FlightAware
09:10AM 33.0950 33.0090 122° Southeast 498 573 29,800 -2,460 Descending FlightAware
09:10AM 33.0500 33.0940 122° Southeast 485 558 28,400 -1,980 Descending FlightAware
09:11AM 33.0190 33.1540 122° Southeast 473 544 27,400 -2,280 Descending FlightAware
09:12AM 32.9680 33.2520 122° Southeast 456 525 25,700 -1,680 Descending FlightAware
09:12AM 32.9310 33.3240 121° Southeast 456 525 25,400 -1,980 Descending FlightAware
09:13AM 32.8900 33.3990 123° Southeast 438 504 23,400 -2,880 Descending FlightAware
09:13AM 32.8510 33.4740 122° Southeast 432 497 22,000 -3,120 Descending FlightAware
09:14AM 32.8090 33.5540 122° Southeast 444 511 19,500 -3,300 Descending FlightAware
09:15AM 32.7710 33.6260 122° Southeast 433 498 18,000 -2,520 Descending FlightAware
09:15AM 32.7370 33.6890 123° Southeast 423 487 16,700 -2,580 Descending FlightAware
09:16AM 32.6990 33.7610 122° Southeast 416 479 15,100 -2,640 Descending FlightAware
09:16AM 32.6660 33.8230 122° Southeast 408 470 13,700 -2,280 Descending FlightAware
09:17AM 32.6310 33.8890 122° Southeast 405 466 12,500 -1,740 Descending FlightAware
09:18AM 32.5920 33.9590 123° Southeast 398 458 11,600 -1,020 Descending FlightAware
09:18AM 32.5570 34.0250 122° Southeast 395 455 11,200 -660 Descending FlightAware
09:19AM 32.5180 34.0980 122° Southeast 391 450 10,800 -600 Descending FlightAware
09:20AM 32.4690 34.1790 126° Southeast 387 445 10,400 -600 Descending FlightAware
09:20AM 32.4290 34.2270 135° Southeast 381 438 10,000 -840 Descending FlightAware
09:21AM 32.3890 34.2740 135° Southeast 382 440 9,600 -840 Descending FlightAware
09:21AM 32.3450 34.3240 136° Southeast 381 438 9,100 -1,020 Descending FlightAware
09:22AM 32.3240 34.3500 134° Southeast 372 428 8,700 -1,440 Descending FlightAware
09:22AM 32.2970 34.3810 136° Southeast 359 413 8,200 -1,620 Descending FlightAware
09:22AM 32.2820 34.3990 135° Southeast 356 410 7,800 -1,800 Descending FlightAware
09:22AM 32.2560 34.4300 135° Southeast 345 397 7,100 -1,500 Descending FlightAware
09:23AM 32.2250 34.4710 132° Southeast 319 367 6,500 -1,140 Descending FlightAware
09:23AM 32.2150 34.4900 122° Southeast 307 353 6,300 -300 Descending FlightAware
09:24AM 32.1970 34.5240 122° Southeast 307 353 6,300 -120 Level FlightAware
09:24AM 32.1990 34.5210 308° West 288 331 6,200 -840 Descending FlightAware
09:25AM 32.1460 34.6210 122° Southeast 281 323 5,300 -1,080 Descending FlightAware
09:25AM 32.1260 34.6570 123° Southeast 283 326 5,200 -180 Descending FlightAware
09:26AM 32.1110 34.6840 123° Southeast 277 319 5,200  Level FlightAware
09:26AM 32.0980 34.7080 123° Southeast 267 307 5,200  Level FlightAware
09:27AM 32.0790 34.7440 122° Southeast 267 307 5,200  Level FlightAware
09:27AM 32.0610 34.7720 127° Southeast 239 275 5,200 -300 Level FlightAware
09:27AM 32.0450 34.7930 132° Southeast 240 276 5,000 -240 Descending FlightAware
09:28AM 32.0250 34.8150 137° Southeast 240 276 5,000 -480 Level FlightAware
09:28AM 32.0030 34.8400 136° Southeast 238 274 4,600 -660 Descending FlightAware
09:29AM 31.9740 34.8740 135° Southeast 240 276 4,300 -1,620 Descending FlightAware
09:29AM 31.9740 34.8960 90° East 235 270 3,200 -2,820 Descending FlightAware
09:29AM 31.9790 34.9230 78° East 213 245 2,800 -1,140 Descending FlightAware
09:30AM 31.9860 34.9490 72° East 187 215 2,300 -1,020 Descending FlightAware
09:30AM 31.9900 34.9560 56° Northeast 187 215 2,200 -960 Descending FlightAware
09:30AM 32.0000 34.9620 27° Northeast 187 215 1,900 -1,200 Descending FlightAware
09:30AM 32.0060 34.9630 North 165 190 1,800 -960 Descending FlightAware
09:31AM 32.0200 34.9590 346° North 156 180 1,500 -480 Descending FlightAware
09:31AM 32.0390 34.9380 317° Northwest 156 180 1,300 -300 Descending FlightAware